sensor_id;sensor_type;location;lat;lon;timestamp;pressure;altitude;pressure_sealevel;temperature;humidity
62926;BME280;55732;52.248;-0.844;2022-08-21T00:01:33;100690.14;;;17.50;62.04
62926;BME280;55732;52.248;-0.844;2022-08-21T00:04:04;100691.23;;;17.49;62.26
62926;BME280;55732;52.248;-0.844;2022-08-21T00:06:29;100687.42;;;17.45;62.22
62926;BME280;55732;52.248;-0.844;2022-08-21T00:08:55;100681.25;;;17.43;62.41
62926;BME280;55732;52.248;-0.844;2022-08-21T00:11:20;100677.05;;;17.41;62.41
62926;BME280;55732;52.248;-0.844;2022-08-21T00:13:46;100672.88;;;17.37;62.60
62926;BME280;55732;52.248;-0.844;2022-08-21T00:16:11;100673.52;;;17.33;62.90
62926;BME280;55732;52.248;-0.844;2022-08-21T00:18:37;100670.95;;;17.29;63.13
62926;BME280;55732;52.248;-0.844;2022-08-21T00:21:03;100666.95;;;17.25;63.38
62926;BME280;55732;52.248;-0.844;2022-08-21T00:23:29;100665.24;;;17.23;63.64
62926;BME280;55732;52.248;-0.844;2022-08-21T00:25:55;100661.55;;;17.22;63.79
62926;BME280;55732;52.248;-0.844;2022-08-21T00:28:20;100654.64;;;17.21;64.09
62926;BME280;55732;52.248;-0.844;2022-08-21T00:30:46;100652.14;;;17.21;64.19
62926;BME280;55732;52.248;-0.844;2022-08-21T00:33:12;100647.35;;;17.21;64.09
62926;BME280;55732;52.248;-0.844;2022-08-21T00:35:40;100644.23;;;17.18;64.54
62926;BME280;55732;52.248;-0.844;2022-08-21T00:38:07;100646.63;;;17.14;64.62
62926;BME280;55732;52.248;-0.844;2022-08-21T00:40:49;100641.00;;;17.11;64.73
62926;BME280;55732;52.248;-0.844;2022-08-21T00:43:17;100639.31;;;17.09;64.88
62926;BME280;55732;52.248;-0.844;2022-08-21T00:45:44;100632.46;;;17.05;65.04
62926;BME280;55732;52.248;-0.844;2022-08-21T00:48:10;100631.31;;;17.01;65.13
62926;BME280;55732;52.248;-0.844;2022-08-21T00:50:40;100633.77;;;16.96;65.45
62926;BME280;55732;52.248;-0.844;2022-08-21T00:53:07;100635.87;;;16.90;65.65
62926;BME280;55732;52.248;-0.844;2022-08-21T00:55:34;100627.09;;;16.87;65.70
62926;BME280;55732;52.248;-0.844;2022-08-21T00:58:04;100626.52;;;16.81;65.92
62926;BME280;55732;52.248;-0.844;2022-08-21T01:00:33;100624.67;;;16.77;66.25
62926;BME280;55732;52.248;-0.844;2022-08-21T01:03:01;100626.55;;;16.74;66.39
62926;BME280;55732;52.248;-0.844;2022-08-21T01:05:29;100623.60;;;16.71;66.81
62926;BME280;55732;52.248;-0.844;2022-08-21T01:07:55;100625.45;;;16.68;66.71
62926;BME280;55732;52.248;-0.844;2022-08-21T01:10:22;100624.40;;;16.67;66.94
62926;BME280;55732;52.248;-0.844;2022-08-21T01:12:48;100625.97;;;16.68;67.19
62926;BME280;55732;52.248;-0.844;2022-08-21T01:15:16;100628.47;;;16.68;67.33
62926;BME280;55732;52.248;-0.844;2022-08-21T01:17:43;100635.39;;;16.68;67.53
62926;BME280;55732;52.248;-0.844;2022-08-21T01:20:10;100634.20;;;16.66;67.48
62926;BME280;55732;52.248;-0.844;2022-08-21T01:22:37;100633.76;;;16.64;67.55
62926;BME280;55732;52.248;-0.844;2022-08-21T01:25:07;100636.98;;;16.63;67.61
62926;BME280;55732;52.248;-0.844;2022-08-21T01:27:32;100637.86;;;16.61;67.67
62926;BME280;55732;52.248;-0.844;2022-08-21T01:30:04;100638.28;;;16.58;67.65
62926;BME280;55732;52.248;-0.844;2022-08-21T01:32:33;100634.83;;;16.54;67.96
62926;BME280;55732;52.248;-0.844;2022-08-21T01:34:59;100634.94;;;16.50;68.01
62926;BME280;55732;52.248;-0.844;2022-08-21T01:37:24;100631.84;;;16.45;68.14
62926;BME280;55732;52.248;-0.844;2022-08-21T01:39:50;100631.94;;;16.41;68.30
62926;BME280;55732;52.248;-0.844;2022-08-21T01:42:15;100623.66;;;16.39;68.26
62926;BME280;55732;52.248;-0.844;2022-08-21T01:44:41;100624.41;;;16.37;68.39
62926;BME280;55732;52.248;-0.844;2022-08-21T01:47:09;100626.58;;;16.36;68.61
62926;BME280;55732;52.248;-0.844;2022-08-21T01:49:36;100626.09;;;16.34;68.74
62926;BME280;55732;52.248;-0.844;2022-08-21T01:52:03;100628.83;;;16.31;68.96
62926;BME280;55732;52.248;-0.844;2022-08-21T01:54:30;100632.23;;;16.29;69.15
62926;BME280;55732;52.248;-0.844;2022-08-21T01:56:56;100632.83;;;16.28;69.30
62926;BME280;55732;52.248;-0.844;2022-08-21T01:59:26;100633.84;;;16.29;69.14
62926;BME280;55732;52.248;-0.844;2022-08-21T02:01:51;100635.60;;;16.29;69.31
62926;BME280;55732;52.248;-0.844;2022-08-21T02:04:19;100632.48;;;16.27;69.43
62926;BME280;55732;52.248;-0.844;2022-08-21T02:06:45;100631.67;;;16.23;69.61
62926;BME280;55732;52.248;-0.844;2022-08-21T02:09:12;100629.94;;;16.21;69.65
62926;BME280;55732;52.248;-0.844;2022-08-21T02:11:40;100623.58;;;16.19;69.73
62926;BME280;55732;52.248;-0.844;2022-08-21T02:14:13;100622.38;;;16.18;69.67
62926;BME280;55732;52.248;-0.844;2022-08-21T02:16:40;100619.45;;;16.14;69.96
62926;BME280;55732;52.248;-0.844;2022-08-21T02:19:06;100621.96;;;16.13;70.13
62926;BME280;55732;52.248;-0.844;2022-08-21T02:21:32;100622.34;;;16.12;70.18
62926;BME280;55732;52.248;-0.844;2022-08-21T02:23:57;100626.08;;;16.12;70.29
62926;BME280;55732;52.248;-0.844;2022-08-21T02:26:24;100628.04;;;16.12;70.36
62926;BME280;55732;52.248;-0.844;2022-08-21T02:28:49;100628.94;;;16.11;70.51
62926;BME280;55732;52.248;-0.844;2022-08-21T02:31:15;100621.68;;;16.10;70.43
62926;BME280;55732;52.248;-0.844;2022-08-21T02:33:41;100623.85;;;16.08;70.50
62926;BME280;55732;52.248;-0.844;2022-08-21T02:36:08;100624.80;;;16.05;70.64
62926;BME280;55732;52.248;-0.844;2022-08-21T02:38:34;100630.38;;;16.03;70.54
62926;BME280;55732;52.248;-0.844;2022-08-21T02:41:08;100630.95;;;16.01;70.81
62926;BME280;55732;52.248;-0.844;2022-08-21T02:43:35;100636.49;;;15.99;70.88
62926;BME280;55732;52.248;-0.844;2022-08-21T02:46:02;100638.29;;;15.99;70.72
62926;BME280;55732;52.248;-0.844;2022-08-21T02:48:30;100639.73;;;15.97;70.96
62926;BME280;55732;52.248;-0.844;2022-08-21T02:51:03;100639.09;;;15.94;70.99
62926;BME280;55732;52.248;-0.844;2022-08-21T02:53:30;100639.10;;;15.94;71.06
62926;BME280;55732;52.248;-0.844;2022-08-21T02:55:58;100634.29;;;15.94;71.15
62926;BME280;55732;52.248;-0.844;2022-08-21T02:58:27;100632.52;;;15.94;71.27
62926;BME280;55732;52.248;-0.844;2022-08-21T03:00:53;100629.34;;;15.94;71.37
62926;BME280;55732;52.248;-0.844;2022-08-21T03:03:19;100633.54;;;15.96;71.45
62926;BME280;55732;52.248;-0.844;2022-08-21T03:05:46;100629.93;;;15.99;71.56
62926;BME280;55732;52.248;-0.844;2022-08-21T03:08:13;100628.65;;;16.01;71.43
62926;BME280;55732;52.248;-0.844;2022-08-21T03:10:43;100630.06;;;16.01;71.41
62926;BME280;55732;52.248;-0.844;2022-08-21T03:13:09;100633.13;;;15.99;71.55
62926;BME280;55732;52.248;-0.844;2022-08-21T03:15:35;100629.95;;;15.98;71.71
62926;BME280;55732;52.248;-0.844;2022-08-21T03:18:02;100624.11;;;15.97;71.65
62926;BME280;55732;52.248;-0.844;2022-08-21T03:20:30;100625.39;;;15.95;71.59
62926;BME280;55732;52.248;-0.844;2022-08-21T03:22:57;100620.18;;;15.91;71.74
62926;BME280;55732;52.248;-0.844;2022-08-21T03:25:25;100616.32;;;15.88;71.84
62926;BME280;55732;52.248;-0.844;2022-08-21T03:27:51;100614.78;;;15.85;71.79
62926;BME280;55732;52.248;-0.844;2022-08-21T03:30:18;100610.37;;;15.84;72.01
62926;BME280;55732;52.248;-0.844;2022-08-21T03:32:46;100608.82;;;15.82;72.03
62926;BME280;55732;52.248;-0.844;2022-08-21T03:35:12;100607.07;;;15.81;72.32
62926;BME280;55732;52.248;-0.844;2022-08-21T03:37:38;100608.01;;;15.80;72.20
62926;BME280;55732;52.248;-0.844;2022-08-21T03:40:07;100608.02;;;15.79;72.49
62926;BME280;55732;52.248;-0.844;2022-08-21T03:42:32;100606.11;;;15.77;72.48
62926;BME280;55732;52.248;-0.844;2022-08-21T03:44:58;100608.97;;;15.75;72.48
62926;BME280;55732;52.248;-0.844;2022-08-21T03:47:24;100604.55;;;15.74;72.55
62926;BME280;55732;52.248;-0.844;2022-08-21T03:49:50;100607.61;;;15.72;72.64
62926;BME280;55732;52.248;-0.844;2022-08-21T03:52:16;100607.66;;;15.70;72.74
62926;BME280;55732;52.248;-0.844;2022-08-21T03:54:43;100609.13;;;15.69;72.54
62926;BME280;55732;52.248;-0.844;2022-08-21T03:57:09;100611.10;;;15.68;72.74
62926;BME280;55732;52.248;-0.844;2022-08-21T03:59:36;100611.10;;;15.68;72.85
62926;BME280;55732;52.248;-0.844;2022-08-21T04:02:04;100611.10;;;15.68;72.70
62926;BME280;55732;52.248;-0.844;2022-08-21T04:04:31;100609.13;;;15.69;73.00
62926;BME280;55732;52.248;-0.844;2022-08-21T04:06:57;100609.60;;;15.70;72.76
62926;BME280;55732;52.248;-0.844;2022-08-21T04:09:23;100607.85;;;15.70;73.17
62926;BME280;55732;52.248;-0.844;2022-08-21T04:11:49;100606.61;;;15.70;73.08
62926;BME280;55732;52.248;-0.844;2022-08-21T04:14:16;100606.98;;;15.69;73.39
62926;BME280;55732;52.248;-0.844;2022-08-21T04:16:42;100603.83;;;15.68;73.55
62926;BME280;55732;52.248;-0.844;2022-08-21T04:19:09;100603.13;;;15.67;73.52
62926;BME280;55732;52.248;-0.844;2022-08-21T04:21:36;100604.93;;;15.66;73.27
62926;BME280;55732;52.248;-0.844;2022-08-21T04:24:03;100606.67;;;15.68;73.49
62926;BME280;55732;52.248;-0.844;2022-08-21T04:26:29;100602.77;;;15.68;73.71
62926;BME280;55732;52.248;-0.844;2022-08-21T04:28:57;100602.56;;;15.69;73.84
62926;BME280;55732;52.248;-0.844;2022-08-21T04:31:23;100600.92;;;15.69;73.71
62926;BME280;55732;52.248;-0.844;2022-08-21T04:33:49;100607.97;;;15.72;73.59
62926;BME280;55732;52.248;-0.844;2022-08-21T04:36:16;100611.90;;;15.71;73.93
62926;BME280;55732;52.248;-0.844;2022-08-21T04:38:42;100612.98;;;15.70;73.89
62926;BME280;55732;52.248;-0.844;2022-08-21T04:41:07;100612.12;;;15.70;73.87
62926;BME280;55732;52.248;-0.844;2022-08-21T04:43:33;100614.05;;;15.70;74.07
62926;BME280;55732;52.248;-0.844;2022-08-21T04:45:58;100615.83;;;15.70;73.83
62926;BME280;55732;52.248;-0.844;2022-08-21T04:48:25;100621.39;;;15.68;74.14
62926;BME280;55732;52.248;-0.844;2022-08-21T04:51:10;100621.05;;;15.67;73.93
62926;BME280;55732;52.248;-0.844;2022-08-21T04:53:45;100620.05;;;15.64;74.07
62926;BME280;55732;52.248;-0.844;2022-08-21T04:56:22;100624.52;;;15.63;74.22
62926;BME280;55732;52.248;-0.844;2022-08-21T04:58:48;100628.58;;;15.64;74.31
62926;BME280;55732;52.248;-0.844;2022-08-21T05:01:21;100633.52;;;15.65;74.28
62926;BME280;55732;52.248;-0.844;2022-08-21T05:03:50;100635.99;;;15.66;74.46
62926;BME280;55732;52.248;-0.844;2022-08-21T05:06:18;100637.77;;;15.66;74.41
62926;BME280;55732;52.248;-0.844;2022-08-21T05:08:45;100640.92;;;15.68;74.35
62926;BME280;55732;52.248;-0.844;2022-08-21T05:11:12;100644.11;;;15.68;74.36
62926;BME280;55732;52.248;-0.844;2022-08-21T05:13:38;100639.86;;;15.68;74.29
62926;BME280;55732;52.248;-0.844;2022-08-21T05:16:07;100641.75;;;15.70;74.28
62926;BME280;55732;52.248;-0.844;2022-08-21T05:18:32;100644.71;;;15.72;74.26
62926;BME280;55732;52.248;-0.844;2022-08-21T05:20:58;100647.69;;;15.74;74.27
62926;BME280;55732;52.248;-0.844;2022-08-21T05:23:23;100649.79;;;15.76;74.43
62926;BME280;55732;52.248;-0.844;2022-08-21T05:25:51;100658.91;;;15.81;74.32
62926;BME280;55732;52.248;-0.844;2022-08-21T05:28:16;100653.70;;;15.84;74.24
62926;BME280;55732;52.248;-0.844;2022-08-21T05:30:43;100658.30;;;15.85;74.14
62926;BME280;55732;52.248;-0.844;2022-08-21T05:33:09;100660.41;;;15.85;74.27
62926;BME280;55732;52.248;-0.844;2022-08-21T05:35:35;100665.42;;;15.83;74.07
62926;BME280;55732;52.248;-0.844;2022-08-21T05:38:02;100663.15;;;15.82;74.25
62926;BME280;55732;52.248;-0.844;2022-08-21T05:40:28;100669.26;;;15.80;74.15
62926;BME280;55732;52.248;-0.844;2022-08-21T05:42:54;100668.73;;;15.79;74.33
62926;BME280;55732;52.248;-0.844;2022-08-21T05:45:25;100666.56;;;15.80;74.35
62926;BME280;55732;52.248;-0.844;2022-08-21T05:47:51;100660.41;;;15.85;74.35
62926;BME280;55732;52.248;-0.844;2022-08-21T05:50:16;100660.00;;;15.88;74.37
62926;BME280;55732;52.248;-0.844;2022-08-21T05:52:42;100660.80;;;15.93;74.42
62926;BME280;55732;52.248;-0.844;2022-08-21T05:55:07;100662.80;;;15.98;74.14
62926;BME280;55732;52.248;-0.844;2022-08-21T05:57:33;100663.98;;;16.02;74.21
62926;BME280;55732;52.248;-0.844;2022-08-21T05:59:58;100663.48;;;16.07;74.19
62926;BME280;55732;52.248;-0.844;2022-08-21T06:02:24;100667.45;;;16.13;73.77
62926;BME280;55732;52.248;-0.844;2022-08-21T06:04:50;100667.64;;;16.19;73.60
62926;BME280;55732;52.248;-0.844;2022-08-21T06:07:15;100669.15;;;16.24;73.65
62926;BME280;55732;52.248;-0.844;2022-08-21T06:09:41;100670.42;;;16.30;73.58
62926;BME280;55732;52.248;-0.844;2022-08-21T06:12:10;100666.56;;;16.36;73.24
62926;BME280;55732;52.248;-0.844;2022-08-21T06:14:37;100666.54;;;16.43;73.05
62926;BME280;55732;52.248;-0.844;2022-08-21T06:17:04;100672.92;;;16.52;72.99
62926;BME280;55732;52.248;-0.844;2022-08-21T06:19:29;100669.88;;;16.61;72.89
62926;BME280;55732;52.248;-0.844;2022-08-21T06:21:55;100670.16;;;16.72;72.85
62926;BME280;55732;52.248;-0.844;2022-08-21T06:24:20;100674.33;;;16.83;72.57
62926;BME280;55732;52.248;-0.844;2022-08-21T06:26:46;100670.45;;;16.95;72.48
62926;BME280;55732;52.248;-0.844;2022-08-21T06:29:13;100666.80;;;17.05;71.97
62926;BME280;55732;52.248;-0.844;2022-08-21T06:31:41;100671.83;;;17.17;71.74
62926;BME280;55732;52.248;-0.844;2022-08-21T06:34:07;100674.35;;;17.28;71.34
62926;BME280;55732;52.248;-0.844;2022-08-21T06:36:32;100672.64;;;17.39;71.04
62926;BME280;55732;52.248;-0.844;2022-08-21T06:38:58;100675.74;;;17.49;70.94
62926;BME280;55732;52.248;-0.844;2022-08-21T06:41:23;100677.57;;;17.60;70.81
62926;BME280;55732;52.248;-0.844;2022-08-21T06:43:49;100676.50;;;17.73;70.36
62926;BME280;55732;52.248;-0.844;2022-08-21T06:46:14;100673.70;;;17.84;70.31
62926;BME280;55732;52.248;-0.844;2022-08-21T06:48:39;100674.07;;;17.95;70.08
62926;BME280;55732;52.248;-0.844;2022-08-21T06:51:05;100674.59;;;18.07;69.64
62926;BME280;55732;52.248;-0.844;2022-08-21T06:53:31;100674.42;;;18.19;69.53
62926;BME280;55732;52.248;-0.844;2022-08-21T06:55:56;100676.29;;;18.27;69.05
62926;BME280;55732;52.248;-0.844;2022-08-21T06:58:22;100669.84;;;18.34;68.90
62926;BME280;55732;52.248;-0.844;2022-08-21T07:00:49;100669.02;;;18.37;68.68
62926;BME280;55732;52.248;-0.844;2022-08-21T07:05:43;100661.33;;;18.43;68.36
62926;BME280;55732;52.248;-0.844;2022-08-21T07:08:08;100663.38;;;18.46;68.35
62926;BME280;55732;52.248;-0.844;2022-08-21T07:10:34;100657.92;;;18.55;67.88
62926;BME280;55732;52.248;-0.844;2022-08-21T07:12:59;100660.42;;;18.66;67.67
62926;BME280;55732;52.248;-0.844;2022-08-21T07:15:25;100666.21;;;18.80;67.41
62926;BME280;55732;52.248;-0.844;2022-08-21T07:17:50;100668.05;;;18.94;67.40
62926;BME280;55732;52.248;-0.844;2022-08-21T07:20:16;100667.40;;;19.08;66.97
62926;BME280;55732;52.248;-0.844;2022-08-21T07:22:42;100673.59;;;19.45;66.18
62926;BME280;55732;52.248;-0.844;2022-08-21T07:25:09;100664.95;;;19.89;65.40
62926;BME280;55732;52.248;-0.844;2022-08-21T07:27:34;100665.55;;;20.15;64.66
62926;BME280;55732;52.248;-0.844;2022-08-21T07:30:00;100656.77;;;20.39;64.19
62926;BME280;55732;52.248;-0.844;2022-08-21T07:32:25;100650.59;;;20.63;63.64
62926;BME280;55732;52.248;-0.844;2022-08-21T07:34:51;100651.46;;;20.89;62.95
62926;BME280;55732;52.248;-0.844;2022-08-21T07:37:17;100655.48;;;21.16;62.04
62926;BME280;55732;52.248;-0.844;2022-08-21T07:39:42;100663.25;;;21.71;60.90
62926;BME280;55732;52.248;-0.844;2022-08-21T07:42:09;100662.25;;;22.16;59.87
62926;BME280;55732;52.248;-0.844;2022-08-21T07:44:35;100657.33;;;22.28;59.49
62926;BME280;55732;52.248;-0.844;2022-08-21T07:47:01;100649.25;;;22.43;58.76
62926;BME280;55732;52.248;-0.844;2022-08-21T07:49:27;100645.74;;;22.59;58.42
62926;BME280;55732;52.248;-0.844;2022-08-21T07:51:53;100642.41;;;22.68;57.97
62926;BME280;55732;52.248;-0.844;2022-08-21T07:54:18;100647.59;;;22.91;57.16
62926;BME280;55732;52.248;-0.844;2022-08-21T07:56:44;100648.88;;;23.72;55.65
62926;BME280;55732;52.248;-0.844;2022-08-21T07:59:10;100650.90;;;24.45;54.34
62926;BME280;55732;52.248;-0.844;2022-08-21T08:01:35;100654.29;;;25.42;52.74
62926;BME280;55732;52.248;-0.844;2022-08-21T08:04:01;100649.13;;;26.62;50.26
62926;BME280;55732;52.248;-0.844;2022-08-21T08:06:26;100642.48;;;27.81;48.17
62926;BME280;55732;52.248;-0.844;2022-08-21T08:08:51;100639.00;;;29.24;45.38
62926;BME280;55732;52.248;-0.844;2022-08-21T08:11:17;100637.52;;;30.42;43.03
62926;BME280;55732;52.248;-0.844;2022-08-21T08:13:45;100639.02;;;31.58;40.71
62926;BME280;55732;52.248;-0.844;2022-08-21T08:16:11;100638.64;;;32.86;38.64
62926;BME280;55732;52.248;-0.844;2022-08-21T08:18:37;100644.45;;;33.89;36.55
62926;BME280;55732;52.248;-0.844;2022-08-21T08:21:04;100644.80;;;34.35;35.76
62926;BME280;55732;52.248;-0.844;2022-08-21T08:23:31;100647.47;;;34.62;34.70
62926;BME280;55732;52.248;-0.844;2022-08-21T08:25:58;100649.70;;;34.65;34.21
62926;BME280;55732;52.248;-0.844;2022-08-21T08:28:23;100651.88;;;34.29;34.03
62926;BME280;55732;52.248;-0.844;2022-08-21T08:30:50;100649.19;;;33.99;34.06
62926;BME280;55732;52.248;-0.844;2022-08-21T08:33:15;100652.34;;;33.68;34.17
62926;BME280;55732;52.248;-0.844;2022-08-21T08:35:45;100654.27;;;33.84;33.31
62926;BME280;55732;52.248;-0.844;2022-08-21T08:38:11;100663.83;;;34.41;33.03
62926;BME280;55732;52.248;-0.844;2022-08-21T08:40:44;100666.42;;;35.04;31.91
62926;BME280;55732;52.248;-0.844;2022-08-21T08:43:12;100669.54;;;35.62;30.99
62926;BME280;55732;52.248;-0.844;2022-08-21T08:45:42;100673.60;;;36.04;29.93
62926;BME280;55732;52.248;-0.844;2022-08-21T08:48:12;100670.26;;;36.45;29.12
62926;BME280;55732;52.248;-0.844;2022-08-21T08:50:49;100666.66;;;36.78;28.80
62926;BME280;55732;52.248;-0.844;2022-08-21T08:53:26;100663.04;;;37.35;27.95
62926;BME280;55732;52.248;-0.844;2022-08-21T08:55:54;100667.92;;;37.57;27.51
62926;BME280;55732;52.248;-0.844;2022-08-21T08:58:29;100666.27;;;37.89;26.86
62926;BME280;55732;52.248;-0.844;2022-08-21T09:00:56;100665.33;;;37.68;26.71
62926;BME280;55732;52.248;-0.844;2022-08-21T09:03:23;100662.61;;;36.78;27.43
62926;BME280;55732;52.248;-0.844;2022-08-21T09:06:10;100661.30;;;35.74;28.19
62926;BME280;55732;52.248;-0.844;2022-08-21T09:14:52;100670.20;;;31.96;31.72
62926;BME280;55732;52.248;-0.844;2022-08-21T09:23:17;100666.78;;;29.05;35.12
62926;BME280;55732;52.248;-0.844;2022-08-21T09:25:59;100666.79;;;28.35;36.15
62926;BME280;55732;52.248;-0.844;2022-08-21T09:28:32;100665.52;;;27.75;37.17
62926;BME280;55732;52.248;-0.844;2022-08-21T09:30:58;100670.38;;;27.17;38.35
62926;BME280;55732;52.248;-0.844;2022-08-21T09:33:28;100666.98;;;26.87;39.13
62926;BME280;55732;52.248;-0.844;2022-08-21T09:35:55;100665.33;;;26.69;39.59
62926;BME280;55732;52.248;-0.844;2022-08-21T09:38:30;100666.64;;;26.54;39.85
62926;BME280;55732;52.248;-0.844;2022-08-21T09:41:05;100667.31;;;26.42;40.04
62926;BME280;55732;52.248;-0.844;2022-08-21T09:43:33;100672.82;;;26.17;40.70
62926;BME280;55732;52.248;-0.844;2022-08-21T09:46:10;100669.09;;;25.91;40.59
62926;BME280;55732;52.248;-0.844;2022-08-21T09:48:51;100672.59;;;25.56;41.46
62926;BME280;55732;52.248;-0.844;2022-08-21T09:53:51;100676.20;;;24.93;42.70
62926;BME280;55732;52.248;-0.844;2022-08-21T09:56:31;100669.64;;;24.82;43.25
62926;BME280;55732;52.248;-0.844;2022-08-21T09:59:28;100680.27;;;24.76;43.80
62926;BME280;55732;52.248;-0.844;2022-08-21T10:01:58;100678.40;;;24.59;44.10
62926;BME280;55732;52.248;-0.844;2022-08-21T10:04:32;100675.90;;;24.49;44.42
62926;BME280;55732;52.248;-0.844;2022-08-21T10:07:08;100672.04;;;24.41;44.87
62926;BME280;55732;52.248;-0.844;2022-08-21T10:09:35;100669.02;;;24.34;45.01
62926;BME280;55732;52.248;-0.844;2022-08-21T10:20:05;100669.09;;;25.27;43.71
62926;BME280;55732;52.248;-0.844;2022-08-21T10:25:28;100668.66;;;25.72;43.39
62926;BME280;55732;52.248;-0.844;2022-08-21T10:28:00;100669.52;;;25.68;43.64
62926;BME280;55732;52.248;-0.844;2022-08-21T10:33:08;100666.52;;;25.31;43.82
62926;BME280;55732;52.248;-0.844;2022-08-21T10:47:18;100667.63;;;24.89;44.76
62926;BME280;55732;52.248;-0.844;2022-08-21T10:55:21;100666.72;;;24.70;44.83
62926;BME280;55732;52.248;-0.844;2022-08-21T11:00:23;100672.75;;;24.50;45.44
62926;BME280;55732;52.248;-0.844;2022-08-21T11:02:57;100667.02;;;24.37;45.55
62926;BME280;55732;52.248;-0.844;2022-08-21T11:05:52;100675.13;;;24.21;46.06
62926;BME280;55732;52.248;-0.844;2022-08-21T11:08:21;100669.25;;;24.07;46.40
62926;BME280;55732;52.248;-0.844;2022-08-21T11:10:59;100677.89;;;23.94;46.54
62926;BME280;55732;52.248;-0.844;2022-08-21T11:18:39;100682.50;;;23.55;47.03
62926;BME280;55732;52.248;-0.844;2022-08-21T11:21:27;100688.06;;;23.41;47.71
62926;BME280;55732;52.248;-0.844;2022-08-21T11:26:44;100681.14;;;23.47;47.72
62926;BME280;55732;52.248;-0.844;2022-08-21T11:29:21;100677.37;;;23.63;47.97
62926;BME280;55732;52.248;-0.844;2022-08-21T11:45:50;100665.65;;;25.13;45.71
62926;BME280;55732;52.248;-0.844;2022-08-21T11:48:40;100662.84;;;25.24;45.35
62926;BME280;55732;52.248;-0.844;2022-08-21T11:51:18;100663.52;;;25.42;45.16
62926;BME280;55732;52.248;-0.844;2022-08-21T11:56:45;100661.77;;;25.90;43.28
62926;BME280;55732;52.248;-0.844;2022-08-21T11:59:18;100665.16;;;25.91;43.21
62926;BME280;55732;52.248;-0.844;2022-08-21T12:01:48;100657.97;;;26.15;42.40
62926;BME280;55732;52.248;-0.844;2022-08-21T12:04:44;100662.66;;;26.16;42.28
62926;BME280;55732;52.248;-0.844;2022-08-21T12:07:13;100659.93;;;25.85;42.73
62926;BME280;55732;52.248;-0.844;2022-08-21T12:09:39;100663.80;;;25.69;42.95
62926;BME280;55732;52.248;-0.844;2022-08-21T12:12:32;100656.08;;;25.75;43.08
62926;BME280;55732;52.248;-0.844;2022-08-21T12:17:41;100658.54;;;26.07;42.60
62926;BME280;55732;52.248;-0.844;2022-08-21T12:23:16;100658.53;;;25.67;42.51
62926;BME280;55732;52.248;-0.844;2022-08-21T12:26:01;100666.70;;;25.46;42.07
62926;BME280;55732;52.248;-0.844;2022-08-21T12:28:29;100664.02;;;25.19;42.41
62926;BME280;55732;52.248;-0.844;2022-08-21T12:30:57;100661.58;;;25.00;42.79
62926;BME280;55732;52.248;-0.844;2022-08-21T12:33:33;100662.70;;;24.87;43.02
62926;BME280;55732;52.248;-0.844;2022-08-21T12:36:13;100663.59;;;24.75;43.38
62926;BME280;55732;52.248;-0.844;2022-08-21T12:38:58;100663.62;;;24.74;44.08
62926;BME280;55732;52.248;-0.844;2022-08-21T12:41:49;100664.33;;;24.74;44.28
62926;BME280;55732;52.248;-0.844;2022-08-21T12:44:24;100660.46;;;24.76;44.24
62926;BME280;55732;52.248;-0.844;2022-08-21T12:47:00;100661.05;;;24.72;44.39
62926;BME280;55732;52.248;-0.844;2022-08-21T12:52:11;100656.52;;;24.75;44.65
62926;BME280;55732;52.248;-0.844;2022-08-21T12:54:42;100658.47;;;24.70;44.65
62926;BME280;55732;52.248;-0.844;2022-08-21T12:57:21;100656.62;;;24.65;45.20
62926;BME280;55732;52.248;-0.844;2022-08-21T12:59:52;100658.13;;;24.57;45.17
62926;BME280;55732;52.248;-0.844;2022-08-21T13:02:20;100653.05;;;24.45;45.47
62926;BME280;55732;52.248;-0.844;2022-08-21T13:04:48;100655.89;;;24.33;45.90
62926;BME280;55732;52.248;-0.844;2022-08-21T13:07:27;100654.36;;;24.22;46.31
62926;BME280;55732;52.248;-0.844;2022-08-21T13:09:56;100653.73;;;24.11;46.54
62926;BME280;55732;52.248;-0.844;2022-08-21T13:12:23;100651.80;;;24.00;47.10
62926;BME280;55732;52.248;-0.844;2022-08-21T13:14:51;100647.46;;;23.94;46.96
62926;BME280;55732;52.248;-0.844;2022-08-21T13:17:19;100644.92;;;23.95;47.07
62926;BME280;55732;52.248;-0.844;2022-08-21T13:19:57;100642.98;;;24.01;47.20
62926;BME280;55732;52.248;-0.844;2022-08-21T13:22:26;100639.61;;;24.19;46.94
62926;BME280;55732;52.248;-0.844;2022-08-21T13:24:52;100633.05;;;24.52;46.39
62926;BME280;55732;52.248;-0.844;2022-08-21T13:27:26;100637.27;;;24.93;45.95
62926;BME280;55732;52.248;-0.844;2022-08-21T13:30:10;100638.80;;;25.25;45.25
62926;BME280;55732;52.248;-0.844;2022-08-21T13:32:40;100638.79;;;25.48;44.36
62926;BME280;55732;52.248;-0.844;2022-08-21T13:35:52;100631.94;;;25.60;44.05
62926;BME280;55732;52.248;-0.844;2022-08-21T13:38:29;100638.69;;;25.78;43.43
62926;BME280;55732;52.248;-0.844;2022-08-21T13:41:00;100632.39;;;25.87;42.99
62926;BME280;55732;52.248;-0.844;2022-08-21T13:43:37;100630.71;;;25.79;43.05
62926;BME280;55732;52.248;-0.844;2022-08-21T13:46:08;100632.02;;;25.90;42.58
62926;BME280;55732;52.248;-0.844;2022-08-21T13:48:36;100628.17;;;25.82;42.64
62926;BME280;55732;52.248;-0.844;2022-08-21T13:51:02;100625.89;;;25.84;42.53
62926;BME280;55732;52.248;-0.844;2022-08-21T13:53:44;100624.46;;;26.06;42.63
62926;BME280;55732;52.248;-0.844;2022-08-21T13:58:54;100629.52;;;26.25;42.62
62926;BME280;55732;52.248;-0.844;2022-08-21T14:01:25;100631.84;;;26.23;42.40
62926;BME280;55732;52.248;-0.844;2022-08-21T14:03:54;100632.08;;;26.16;42.22
62926;BME280;55732;52.248;-0.844;2022-08-21T14:06:24;100629.55;;;26.03;42.53
62926;BME280;55732;52.248;-0.844;2022-08-21T14:08:58;100627.09;;;25.94;42.65
62926;BME280;55732;52.248;-0.844;2022-08-21T14:11:26;100620.13;;;25.87;42.62
62926;BME280;55732;52.248;-0.844;2022-08-21T14:16:27;100627.17;;;25.92;43.02
62926;BME280;55732;52.248;-0.844;2022-08-21T14:19:10;100625.11;;;26.16;42.92